createdAt,value
2022-12-19T00:01:33.546Z,47.33
2022-12-19T00:04:11.461Z,39.43
2022-12-19T00:06:45.390Z,42.72
2022-12-19T00:09:19.149Z,45.20
2022-12-19T00:11:54.628Z,36.23
2022-12-19T00:14:28.186Z,43.93
2022-12-19T00:17:01.966Z,37.33
2022-12-19T00:19:35.536Z,39.47
2022-12-19T00:22:11.283Z,42.53
2022-12-19T00:24:45.293Z,41.77
2022-12-19T00:27:20.576Z,34.40
2022-12-19T00:29:54.135Z,37.67
2022-12-19T00:32:28.080Z,32.00
2022-12-19T00:35:01.801Z,35.53
2022-12-19T00:37:35.774Z,39.40
2022-12-19T00:40:12.766Z,40.13
2022-12-19T00:42:53.379Z,42.57
2022-12-19T00:45:27.994Z,36.90
2022-12-19T00:48:02.959Z,38.43
2022-12-19T00:50:36.666Z,36.80
2022-12-19T00:53:10.448Z,40.63
2022-12-19T00:55:43.983Z,40.30
2022-12-19T00:58:19.214Z,42.43
2022-12-19T01:00:52.806Z,38.87
2022-12-19T01:03:27.066Z,38.80
2022-12-19T01:06:00.651Z,38.93
2022-12-19T01:08:34.564Z,41.40
2022-12-19T01:11:08.934Z,38.93
2022-12-19T01:13:43.619Z,37.87
2022-12-19T01:16:17.340Z,41.23
2022-12-19T01:18:52.235Z,35.20
2022-12-19T01:21:25.818Z,35.43
2022-12-19T01:23:59.712Z,36.13
2022-12-19T01:26:33.533Z,36.97
2022-12-19T01:29:08.736Z,36.90
2022-12-19T01:31:42.471Z,38.73
2022-12-19T01:34:16.325Z,43.03
2022-12-19T01:36:49.975Z,37.00
2022-12-19T01:39:23.768Z,44.23
2022-12-19T01:42:00.481Z,35.97
2022-12-19T01:44:37.687Z,35.93
2022-12-19T01:47:14.625Z,42.17
2022-12-19T01:49:48.631Z,38.57
2022-12-19T01:52:23.886Z,35.27
2022-12-19T01:54:58.084Z,38.90
2022-12-19T01:57:32.501Z,38.90
2022-12-19T02:00:11.419Z,36.87
2022-12-19T02:02:49.734Z,34.60
2022-12-19T02:05:23.777Z,31.83
2022-12-19T02:07:57.611Z,35.83
2022-12-19T02:10:31.423Z,35.37
2022-12-19T02:13:06.878Z,34.50
2022-12-19T02:16:04.222Z,37.73
2022-12-19T02:18:49.212Z,32.83
2022-12-19T02:21:32.660Z,35.77
2022-12-19T02:24:47.744Z,31.00
2022-12-19T02:28:05.743Z,38.87
2022-12-19T02:30:52.890Z,32.40
2022-12-19T02:33:34.140Z,35.63
2022-12-19T02:36:13.486Z,34.13
2022-12-19T02:38:53.612Z,32.53
2022-12-19T02:41:30.711Z,32.27
2022-12-19T02:44:05.372Z,30.63
2022-12-19T02:46:40.823Z,37.40
2022-12-19T02:49:20.707Z,38.80
2022-12-19T02:52:11.293Z,35.03
2022-12-19T02:54:45.789Z,34.30
2022-12-19T02:57:24.083Z,36.30
2022-12-19T03:00:06.616Z,35.67
2022-12-19T03:02:57.921Z,37.80
2022-12-19T03:05:42.126Z,34.17
2022-12-19T03:08:24.654Z,33.23
2022-12-19T03:11:01.677Z,29.80
2022-12-19T03:13:39.057Z,36.77
2022-12-19T03:16:13.608Z,38.50
2022-12-19T03:18:48.834Z,36.27
2022-12-19T03:21:28.381Z,33.10
2022-12-19T03:24:02.985Z,33.97
2022-12-19T03:26:42.623Z,30.90
2022-12-19T03:29:22.380Z,38.33
2022-12-19T03:31:58.366Z,36.00
2022-12-19T03:34:37.710Z,40.17
2022-12-19T03:37:16.403Z,38.40
2022-12-19T03:39:56.879Z,39.05
2022-12-19T03:42:48.242Z,35.93
2022-12-19T03:45:27.548Z,32.30
2022-12-19T03:48:05.011Z,40.03
2022-12-19T03:50:47.717Z,35.13
2022-12-19T03:53:31.065Z,33.93
2022-12-19T03:56:12.551Z,33.20
2022-12-19T03:58:52.590Z,38.40
2022-12-19T04:01:29.204Z,32.17
2022-12-19T04:04:04.804Z,35.30
2022-12-19T04:06:41.674Z,35.60
2022-12-19T04:09:22.283Z,39.00
2022-12-19T04:12:01.503Z,32.87
2022-12-19T04:14:38.058Z,34.80
2022-12-19T04:17:18.828Z,32.87
2022-12-19T04:20:01.137Z,32.17
2022-12-19T04:22:39.789Z,32.33
2022-12-19T04:27:54.846Z,37.77
2022-12-19T04:30:28.720Z,34.20
2022-12-19T04:33:03.023Z,31.17
2022-12-19T04:35:37.135Z,33.30
2022-12-19T04:38:12.115Z,31.33
2022-12-19T04:40:46.003Z,33.07
2022-12-19T04:43:19.523Z,36.23
2022-12-19T04:45:57.321Z,30.03
2022-12-19T04:48:31.444Z,33.67
2022-12-19T04:51:05.996Z,32.43
2022-12-19T04:53:40.979Z,32.50
2022-12-19T04:56:15.107Z,38.83
2022-12-19T04:58:48.777Z,31.40
2022-12-19T05:01:22.574Z,32.93
2022-12-19T05:04:01.255Z,28.87
2022-12-19T05:06:38.017Z,32.83
2022-12-19T05:09:13.685Z,30.63
2022-12-19T05:11:47.593Z,30.07
2022-12-19T05:14:21.204Z,36.03
2022-12-19T05:17:01.366Z,31.27
2022-12-19T05:19:35.316Z,30.13
2022-12-19T05:22:09.099Z,27.43
2022-12-19T05:24:44.184Z,28.80
2022-12-19T05:27:18.025Z,28.17
2022-12-19T05:29:51.586Z,28.23
2022-12-19T05:32:25.416Z,33.13
2022-12-19T05:34:59.012Z,34.70
2022-12-19T05:37:32.767Z,28.70
2022-12-19T05:40:09.398Z,29.77
2022-12-19T05:42:43.372Z,35.07
2022-12-19T05:45:17.227Z,31.63
2022-12-19T05:47:50.932Z,29.10
2022-12-19T05:50:24.507Z,32.73
2022-12-19T05:52:58.301Z,28.63
2022-12-19T05:55:33.228Z,29.70
2022-12-19T05:58:07.000Z,29.50
2022-12-19T06:00:40.793Z,29.60
2022-12-19T06:03:14.607Z,28.92
2022-12-19T06:05:48.132Z,31.20
2022-12-19T06:08:21.997Z,27.05
2022-12-19T06:10:59.732Z,30.13
2022-12-19T06:13:33.866Z,29.40
2022-12-19T06:16:10.799Z,27.83
2022-12-19T06:18:46.361Z,28.65
2022-12-19T06:21:21.919Z,26.00
2022-12-19T06:23:56.207Z,28.98
2022-12-19T06:26:31.845Z,28.17
2022-12-19T06:29:05.677Z,29.63
2022-12-19T06:31:39.410Z,28.30
2022-12-19T06:34:22.062Z,28.03
2022-12-19T06:37:08.434Z,27.63
2022-12-19T06:39:42.357Z,33.50
2022-12-19T06:42:25.353Z,25.88
2022-12-19T06:44:59.022Z,29.23
2022-12-19T06:47:32.564Z,30.20
2022-12-19T06:50:07.459Z,30.27
2022-12-19T06:52:41.538Z,26.10
2022-12-19T06:55:15.366Z,31.48
2022-12-19T06:57:50.276Z,30.55
2022-12-19T07:00:23.995Z,29.55
2022-12-19T07:03:00.467Z,33.67
2022-12-19T07:05:34.966Z,32.75
2022-12-19T07:08:09.900Z,28.98
2022-12-19T07:10:43.762Z,28.77
2022-12-19T07:13:18.631Z,22.25
2022-12-19T07:15:53.894Z,34.08
2022-12-19T07:18:28.136Z,30.50
2022-12-19T07:21:02.964Z,29.58
2022-12-19T07:23:36.656Z,25.77
2022-12-19T07:26:10.489Z,28.90
2022-12-19T07:28:45.506Z,26.58
2022-12-19T07:31:19.299Z,35.30
2022-12-19T07:33:52.856Z,29.52
2022-12-19T07:36:26.696Z,26.63
2022-12-19T07:39:00.311Z,29.38
2022-12-19T07:41:37.156Z,29.17
2022-12-19T07:44:13.250Z,29.92
2022-12-19T07:46:47.905Z,33.83
2022-12-19T07:49:22.933Z,27.98
2022-12-19T07:51:56.812Z,29.52
2022-12-19T07:54:30.432Z,29.20
2022-12-19T07:57:05.549Z,28.92
2022-12-19T07:59:40.589Z,29.35
2022-12-19T08:02:14.744Z,27.60
2022-12-19T08:04:48.503Z,26.43
2022-12-19T08:07:22.347Z,31.35
2022-12-19T08:09:55.918Z,27.98
2022-12-19T08:12:29.694Z,33.45
2022-12-19T08:15:05.895Z,30.13
2022-12-19T08:17:42.115Z,32.05
2022-12-19T08:20:15.750Z,40.35
2022-12-19T08:22:49.909Z,33.58
2022-12-19T08:25:23.491Z,35.72
2022-12-19T08:27:57.313Z,30.05
2022-12-19T08:30:32.395Z,35.53
2022-12-19T08:33:06.724Z,40.40
2022-12-19T08:35:40.278Z,37.05
2022-12-19T08:38:15.449Z,39.17
2022-12-19T08:40:54.495Z,31.25
2022-12-19T08:43:29.356Z,31.75
2022-12-19T08:46:06.572Z,38.08
2022-12-19T08:48:43.678Z,34.75
2022-12-19T08:51:19.483Z,29.83
2022-12-19T08:53:54.592Z,38.22
2022-12-19T08:56:29.404Z,40.20
2022-12-19T08:59:04.707Z,35.20
2022-12-19T09:01:40.324Z,34.17
2022-12-19T09:05:17.875Z,31.17
2022-12-19T09:07:09.415Z,39.25
2022-12-19T09:09:43.335Z,39.85
2022-12-19T09:12:17.325Z,38.17
2022-12-19T09:14:51.277Z,35.78
2022-12-19T09:17:26.172Z,34.20
2022-12-19T09:20:00.183Z,34.33
2022-12-19T09:22:34.006Z,38.50
2022-12-19T09:25:08.829Z,33.22
2022-12-19T09:28:01.682Z,34.30
2022-12-19T09:30:36.444Z,51.97
2022-12-19T09:33:12.659Z,38.10
2022-12-19T09:35:51.213Z,31.88
2022-12-19T09:38:26.839Z,37.90
2022-12-19T09:41:20.649Z,38.45
2022-12-19T09:44:08.314Z,39.50
2022-12-19T09:46:49.620Z,37.00
2022-12-19T09:49:28.143Z,36.75
2022-12-19T09:52:07.123Z,31.85
2022-12-19T09:54:45.579Z,34.05
2022-12-19T09:57:24.271Z,38.20
2022-12-19T10:00:02.684Z,38.25
2022-12-19T10:05:29.295Z,36.10
2022-12-19T10:08:19.563Z,35.95
2022-12-19T10:12:39.487Z,33.05
2022-12-19T10:14:15.433Z,33.97
2022-12-19T10:17:23.191Z,35.58
2022-12-19T10:20:13.874Z,34.25
2022-12-19T10:23:00.778Z,37.17
2022-12-19T10:25:51.464Z,32.28
2022-12-19T10:28:45.277Z,33.58
2022-12-19T10:31:24.221Z,37.85
2022-12-19T10:34:02.950Z,31.75
2022-12-19T10:39:48.324Z,32.07
2022-12-19T10:42:32.914Z,36.53
2022-12-19T10:45:14.978Z,36.05
2022-12-19T10:47:57.428Z,30.60
2022-12-19T10:50:31.492Z,35.85
2022-12-19T10:53:11.042Z,37.35
2022-12-19T10:55:49.874Z,32.30
2022-12-19T10:58:26.218Z,36.92
2022-12-19T11:01:06.288Z,30.65
2022-12-19T11:03:42.667Z,37.30
2022-12-19T11:06:50.135Z,33.80
2022-12-19T11:09:27.583Z,31.35
2022-12-19T11:15:45.803Z,36.38
2022-12-19T11:21:02.684Z,33.63
2022-12-19T11:29:16.392Z,30.50
2022-12-19T11:29:37.163Z,30.63
2022-12-19T11:30:25.963Z,32.10
2022-12-19T11:30:36.678Z,33.33
2022-12-19T11:33:30.294Z,33.22
2022-12-19T11:36:06.038Z,29.25
2022-12-19T11:38:48.541Z,27.75
2022-12-19T11:41:33.759Z,29.13
2022-12-19T11:44:14.641Z,28.30
2022-12-19T11:46:55.581Z,25.17
2022-12-19T11:49:36.051Z,33.70
2022-12-19T11:52:54.303Z,27.88
2022-12-19T11:55:21.255Z,35.10
2022-12-19T11:57:56.116Z,28.92
2022-12-19T12:00:32.454Z,27.55
2022-12-19T12:03:26.554Z,32.08
2022-12-19T12:06:01.587Z,35.28
2022-12-19T12:13:07.331Z,31.40
2022-12-19T12:17:55.092Z,29.20
2022-12-19T12:30:37.251Z,29.40
2022-12-19T12:31:01.542Z,30.10
2022-12-19T12:31:05.046Z,32.80
2022-12-19T12:31:42.779Z,33.53
2022-12-19T12:31:44.603Z,30.13
2022-12-19T12:31:57.036Z,38.92
2022-12-19T12:35:46.225Z,30.80
2022-12-19T12:39:35.287Z,35.40
2022-12-19T12:42:20.822Z,33.60
2022-12-19T12:44:58.069Z,38.50
2022-12-19T12:47:31.788Z,65.13
2022-12-19T12:50:10.138Z,48.58
2022-12-19T12:52:47.862Z,37.95
2022-12-19T12:55:27.542Z,31.13
2022-12-19T12:58:01.860Z,33.63
2022-12-19T13:00:36.638Z,28.02
2022-12-19T13:03:14.892Z,52.33
2022-12-19T13:06:06.808Z,47.40
2022-12-19T13:08:47.480Z,38.17
2022-12-19T13:11:56.090Z,34.10
2022-12-19T13:14:50.736Z,46.08
2022-12-19T13:18:03.912Z,32.78
2022-12-19T13:20:45.279Z,25.25
2022-12-19T13:23:24.879Z,84.30
2022-12-19T13:25:58.912Z,79.07
2022-12-19T13:28:40.612Z,26.42
2022-12-19T13:31:22.839Z,31.05
2022-12-19T13:34:19.402Z,34.47
2022-12-19T13:39:47.737Z,28.30
2022-12-19T13:40:12.059Z,28.17
2022-12-19T13:43:17.565Z,30.13
2022-12-19T13:45:54.697Z,29.38
2022-12-19T13:48:32.197Z,25.55
2022-12-19T13:51:08.378Z,29.48
2022-12-19T13:53:44.915Z,56.65
2022-12-19T13:56:20.232Z,31.83
2022-12-19T13:58:57.689Z,33.88
2022-12-19T14:01:33.967Z,28.20
2022-12-19T14:04:11.917Z,67.72
2022-12-19T14:06:47.282Z,41.53
2022-12-19T14:11:28.627Z,84.60
2022-12-19T14:13:49.894Z,28.65
2022-12-19T14:15:52.556Z,36.53
2022-12-19T14:18:45.065Z,32.60
2022-12-19T14:22:06.932Z,29.88
2022-12-19T14:24:18.963Z,30.45
2022-12-19T14:28:26.134Z,32.30
2022-12-19T14:30:30.970Z,32.20
2022-12-19T14:33:44.254Z,33.15
2022-12-19T14:36:12.110Z,35.55
2022-12-19T14:39:24.875Z,32.53
2022-12-19T14:42:02.507Z,38.05
2022-12-19T14:52:08.675Z,35.40
2022-12-19T14:54:06.845Z,37.08
2022-12-19T14:54:25.676Z,40.45
2022-12-19T14:54:26.484Z,37.47
2022-12-19T14:56:58.328Z,35.85
2022-12-19T14:59:31.381Z,39.05
2022-12-19T15:02:27.905Z,34.95
2022-12-19T15:05:09.020Z,33.85
2022-12-19T15:07:47.231Z,34.75
2022-12-19T15:11:05.455Z,31.88
2022-12-19T15:14:51.619Z,33.50
2022-12-19T15:16:28.780Z,35.33
2022-12-19T15:19:11.651Z,30.23
2022-12-19T15:21:45.239Z,33.60
2022-12-19T15:24:19.240Z,36.38
2022-12-19T15:26:54.708Z,30.23
2022-12-19T15:29:28.766Z,35.58
2022-12-19T15:32:02.351Z,35.13
2022-12-19T15:34:50.280Z,37.30
2022-12-19T15:37:24.746Z,36.72
2022-12-19T15:39:58.568Z,30.60
2022-12-19T15:42:32.596Z,41.28
2022-12-19T15:45:07.981Z,34.38
2022-12-19T15:47:41.830Z,40.10
2022-12-19T15:50:20.484Z,36.40
2022-12-19T15:52:55.952Z,35.78
2022-12-19T15:55:31.668Z,37.00
2022-12-19T15:58:07.646Z,33.78
2022-12-19T16:00:44.065Z,34.72
2022-12-19T16:03:25.774Z,36.92
2022-12-19T16:06:01.656Z,33.58
2022-12-19T16:08:35.467Z,33.58
2022-12-19T16:11:18.817Z,35.50
2022-12-19T16:13:55.550Z,35.50
2022-12-19T16:16:30.808Z,35.13
2022-12-19T16:19:04.553Z,32.55
2022-12-19T16:21:40.218Z,36.88
2022-12-19T16:24:14.008Z,36.45
2022-12-19T16:26:54.033Z,36.33
2022-12-19T16:29:31.208Z,36.13
2022-12-19T16:32:05.839Z,37.40
2022-12-19T16:34:39.356Z,36.20
2022-12-19T16:37:14.646Z,37.35
2022-12-19T16:39:48.250Z,37.50
2022-12-19T16:42:23.578Z,42.80
2022-12-19T16:44:57.110Z,33.60
2022-12-19T16:47:31.031Z,40.17
2022-12-19T16:50:12.198Z,38.45
2022-12-19T16:52:47.828Z,35.38
2022-12-19T16:55:22.009Z,33.72
2022-12-19T16:57:57.936Z,36.72
2022-12-19T17:00:31.909Z,33.10
2022-12-19T17:03:10.136Z,34.13
2022-12-19T17:05:43.929Z,32.80
2022-12-19T17:08:20.589Z,31.83
2022-12-19T17:10:55.380Z,32.75
2022-12-19T17:13:29.409Z,33.03
2022-12-19T17:16:05.491Z,30.73
2022-12-19T17:18:42.887Z,37.10
2022-12-19T17:21:19.522Z,32.65
2022-12-19T17:23:56.346Z,39.92
2022-12-19T17:26:30.833Z,34.30
2022-12-19T17:29:06.711Z,31.38
2022-12-19T17:31:42.226Z,32.40
2022-12-19T17:34:24.701Z,26.35
2022-12-19T17:37:02.143Z,34.28
2022-12-19T17:39:39.322Z,33.67
2022-12-19T17:42:19.544Z,32.22
2022-12-19T17:44:53.794Z,29.73
2022-12-19T17:47:30.343Z,34.40
2022-12-19T17:50:04.783Z,28.00
2022-12-19T17:52:38.679Z,30.00
2022-12-19T17:55:20.517Z,31.02
2022-12-19T17:57:55.047Z,26.83
2022-12-19T18:00:32.380Z,30.58
2022-12-19T18:03:20.049Z,28.10
2022-12-19T18:05:56.457Z,26.13
2022-12-19T18:08:32.367Z,27.20
2022-12-19T18:11:12.644Z,24.58
2022-12-19T18:13:46.882Z,29.40
2022-12-19T18:16:25.463Z,30.65
2022-12-19T18:18:59.203Z,26.60
2022-12-19T18:21:33.248Z,30.40
2022-12-19T18:24:12.044Z,29.08
2022-12-19T18:29:20.822Z,24.77
2022-12-19T18:31:56.011Z,25.92
2022-12-19T18:34:31.992Z,23.55
2022-12-19T18:37:05.896Z,26.95
2022-12-19T18:39:39.495Z,23.55
2022-12-19T18:42:22.550Z,27.20
2022-12-19T18:44:56.235Z,26.15
2022-12-19T18:47:30.158Z,26.92
2022-12-19T18:50:03.952Z,23.55
2022-12-19T18:52:37.767Z,24.27
2022-12-19T18:55:16.378Z,27.50
2022-12-19T18:57:51.792Z,27.70
2022-12-19T19:00:28.273Z,24.38
2022-12-19T19:03:04.606Z,27.23
2022-12-19T19:05:41.376Z,25.52
2022-12-19T19:08:20.745Z,23.83
2022-12-19T19:10:55.740Z,26.92
2022-12-19T19:13:31.520Z,22.63
2022-12-19T19:16:15.647Z,21.58
2022-12-19T19:18:53.082Z,26.00
2022-12-19T19:21:29.734Z,22.50
2022-12-19T19:24:08.569Z,21.13
2022-12-19T19:26:42.245Z,21.88
2022-12-19T19:29:19.542Z,23.77
2022-12-19T19:31:53.582Z,24.73
2022-12-19T19:34:30.850Z,23.17
2022-12-19T19:37:08.001Z,19.58
2022-12-19T19:39:41.794Z,20.33
2022-12-19T19:42:15.475Z,20.67
2022-12-19T19:44:50.711Z,22.55
2022-12-19T19:47:28.256Z,23.98
2022-12-19T19:50:02.070Z,18.77
2022-12-19T19:52:36.020Z,20.52
2022-12-19T19:55:11.027Z,26.50
2022-12-19T19:57:44.669Z,23.15
2022-12-19T20:00:21.031Z,20.80
2022-12-19T20:02:54.664Z,21.75
2022-12-19T20:05:28.492Z,22.65
2022-12-19T20:08:02.189Z,20.15
2022-12-19T20:10:35.977Z,22.48
2022-12-19T20:13:11.004Z,20.88
2022-12-19T20:15:49.989Z,21.05
2022-12-19T20:20:57.570Z,22.75
2022-12-19T20:23:31.158Z,18.70
2022-12-19T20:26:06.885Z,19.58
2022-12-19T20:28:47.951Z,17.13
2022-12-19T20:31:25.208Z,18.42
2022-12-19T20:33:59.203Z,22.92
2022-12-19T20:36:34.210Z,18.33
2022-12-19T20:39:07.856Z,18.00
2022-12-19T20:41:42.051Z,16.20
2022-12-19T20:44:22.060Z,18.38
2022-12-19T20:46:59.832Z,16.42
2022-12-19T20:49:33.511Z,16.73
2022-12-19T20:52:07.616Z,20.30
2022-12-19T20:54:41.316Z,14.95
2022-12-19T20:57:15.080Z,13.48
2022-12-19T20:59:48.641Z,14.70
2022-12-19T21:02:23.837Z,19.02
2022-12-19T21:04:57.611Z,19.85
2022-12-19T21:07:31.331Z,13.68
2022-12-19T21:10:05.793Z,15.27
2022-12-19T21:12:45.499Z,12.23
2022-12-19T21:15:21.063Z,13.57
2022-12-19T21:17:56.216Z,13.65
2022-12-19T21:20:34.346Z,16.48
2022-12-19T21:23:08.409Z,13.10
2022-12-19T21:25:42.064Z,13.65
2022-12-19T21:28:16.383Z,15.98
2022-12-19T21:30:56.771Z,15.10
2022-12-19T21:33:32.378Z,13.80
2022-12-19T21:36:07.951Z,14.70
2022-12-19T21:38:41.880Z,13.75
2022-12-19T21:41:18.926Z,14.32
2022-12-19T21:43:54.406Z,13.35
2022-12-19T21:46:29.883Z,12.25
2022-12-19T21:49:05.250Z,13.15
2022-12-19T21:51:38.750Z,11.50
2022-12-19T21:54:14.002Z,13.18
2022-12-19T21:56:47.550Z,15.00
2022-12-19T21:59:21.310Z,14.85
2022-12-19T22:01:55.094Z,12.43
2022-12-19T22:04:31.275Z,21.45
2022-12-19T22:07:06.002Z,16.92
2022-12-19T22:09:39.751Z,11.88
2022-12-19T22:12:13.762Z,13.38
2022-12-19T22:14:47.515Z,15.82
2022-12-19T22:17:21.039Z,18.25
2022-12-19T22:19:56.278Z,14.23
2022-12-19T22:22:29.881Z,13.60
2022-12-19T22:25:03.790Z,15.50
2022-12-19T22:27:37.376Z,11.93
2022-12-19T22:30:11.708Z,14.95
2022-12-19T22:32:45.449Z,15.25
2022-12-19T22:35:20.691Z,16.73
2022-12-19T22:37:54.280Z,13.63
2022-12-19T22:40:28.383Z,14.00
2022-12-19T22:43:01.950Z,14.07
2022-12-19T22:45:35.934Z,14.07
2022-12-19T22:48:09.590Z,13.30
2022-12-19T22:50:48.020Z,14.77
2022-12-19T22:53:21.665Z,17.33
2022-12-19T22:55:55.459Z,13.82
2022-12-19T22:58:30.009Z,14.68
2022-12-19T23:01:05.251Z,15.85
2022-12-19T23:03:39.142Z,17.33
2022-12-19T23:06:15.447Z,12.00
2022-12-19T23:08:49.450Z,14.02
2022-12-19T23:11:26.308Z,11.32
2022-12-19T23:13:59.867Z,12.27
2022-12-19T23:16:33.877Z,10.00
2022-12-19T23:19:09.003Z,13.73
2022-12-19T23:21:45.062Z,11.95
2022-12-19T23:24:18.824Z,14.70
2022-12-19T23:26:52.621Z,12.68
2022-12-19T23:29:26.258Z,12.75
2022-12-19T23:32:00.396Z,15.38
2022-12-19T23:34:34.298Z,12.82
2022-12-19T23:37:11.453Z,13.00
2022-12-19T23:39:45.867Z,14.65
2022-12-19T23:42:19.596Z,10.77
2022-12-19T23:44:53.294Z,12.75
2022-12-19T23:47:27.180Z,13.18
2022-12-19T23:50:00.733Z,9.73
2022-12-19T23:52:36.029Z,13.18
2022-12-19T23:55:10.528Z,15.50
2022-12-19T23:57:44.371Z,12.93
